Patrick J. Studdert — WDG4262 — position and weather

sailwx.info

Track history (hours):
 
Tides and Currents Weather Stations Pressure Air Temp Water Temp Dewpoint Dewpoint Depression Visibility Wind Speed Wind Dir Waves Ship Positions

Patrick J. Studdert

Owner: SHAMROCK MARINE L.L.C., Kingwood, TX. More information available from US FCC via Universal Licensing System and Coast Guard Vessel Documentation Center.

Last reported at 2017-Oct-19 02:19 UTC. Time now 2017-Oct-19 05:30 UTC.
Position N 29°46' W 095°06'.

Length 100 m; draft 2.9 m.

Type: Towing. MMSI: 367534690.

Date/timePositionNaut miles runAvg speedWind from/ knotsBaromVisibWave heightAir tempDewpointWater temp
2017-Oct-19 02:19N 29°46' W 095°06'0 0.1
2017-Oct-19 01:48N 29°46' W 095°06'0 1.3
2017-Oct-19 01:30N 29°46' W 095°06'2 4.4
2017-Oct-19 01:00N 29°45' W 095°04'3 6.2
2017-Oct-19 00:30N 29°43' W 095°01'3 6.6
2017-Oct-19 00:00N 29°40' W 094°59'4 7.3
2017-Oct-18 23:30N 29°37' W 094°57'4 7.1
2017-Oct-18 23:00N 29°34' W 094°55'7 0.8
2017-Oct-18 14:40N 29°28' W 094°51'5 7.0
2017-Oct-18 14:00N 29°32' W 094°54'3 6.9
2017-Oct-18 13:30N 29°35' W 094°56'3 6.6
2017-Oct-18 13:00N 29°38' W 094°58'3 6.9
2017-Oct-18 12:30N 29°41' W 094°59'3 6.1
2017-Oct-18 12:00N 29°43' W 095°01'3 6.1
2017-Oct-18 11:30N 29°45' W 095°04'2 4.0
2017-Oct-18 11:00N 29°46' W 095°06'0 0.2
2017-Oct-18 10:24N 29°46' W 095°06'1 1.7
2017-Oct-18 09:59N 29°46' W 095°06'2 3.1
2017-Oct-18 09:30N 29°45' W 095°04'3 6.1
2017-Oct-18 09:00N 29°43' W 095°01'3 5.7
2017-Oct-18 08:30N 29°41' W 094°59'1 0.2
2017-Oct-18 03:43N 29°41' W 095°00'0 0.0
2017-Oct-18 02:45N 29°41' W 095°00'0 0.0
2017-Oct-17 21:36N 29°41' W 095°00'0 0.1
2017-Oct-17 21:27N 29°41' W 095°00'0 0.7
2017-Oct-17 21:00N 29°41' W 094°60'2 3.1
2017-Oct-17 20:30N 29°42' W 095°01'3 5.8
2017-Oct-17 20:00N 29°44' W 095°03'3 5.0
2017-Oct-17 19:29N 29°46' W 095°06'0 0.8
2017-Oct-17 19:00N 29°46' W 095°06'1 1.0
2017-Oct-17 18:23N 29°46' W 095°05'1 0.1
2017-Oct-17 07:43N 29°46' W 095°06'1 2.5
2017-Oct-17 07:30N 29°46' W 095°06'3 5.1
2017-Oct-17 07:00N 29°44' W 095°03'0 0.0
2017-Oct-16 20:00N 29°44' W 095°03'0 0.0
2017-Oct-16 17:15N 29°44' W 095°03'1 5.8
2017-Oct-16 17:00N 29°45' W 095°04'2 3.9
2017-Oct-16 16:25N 29°46' W 095°06'2 1.6
2017-Oct-16 15:24N 29°47' W 095°04'2 0.2
2017-Oct-16 07:41N 29°46' W 095°06'1 3.1
2017-Oct-16 07:29N 29°46' W 095°06'2 4.7
2017-Oct-16 07:00N 29°45' W 095°04'3 6.3
2017-Oct-16 06:30N 29°42' W 095°01'3 6.4
2017-Oct-16 06:00N 29°40' W 094°59'4 7.8
2017-Oct-16 05:31N 29°36' W 094°57'4 7.6
2017-Oct-16 05:00N 29°33' W 094°55'1074108.4
2017-Oct-15 19:06N 38°58' W 076°29'0 0.0
2017-Oct-15 19:00N 38°58' W 076°29'1 1.2
2017-Oct-15 18:30N 38°58' W 076°28'3 6.1
2017-Oct-15 18:00N 38°59' W 076°25'2 4.8
2017-Oct-15 17:30N 39°01' W 076°23'3 4.3
2017-Oct-15 16:48N 39°04' W 076°24'1081107.0
2017-Oct-15 06:42N 29°28' W 094°51'1 5.7
2017-Oct-15 06:29N 29°29' W 094°52'3 6.0
2017-Oct-15 06:00N 29°31' W 094°53'3 6.5
2017-Oct-15 05:30N 29°34' W 094°55'3 6.6
2017-Oct-15 05:00N 29°37' W 094°57'3 7.0
2017-Oct-15 04:30N 29°40' W 094°59'3 6.8
2017-Oct-15 04:00N 29°43' W 095°01'2 2.2
2017-Oct-15 03:07N 29°44' W 095°03'0 0.0
2017-Oct-15 03:00N 29°44' W 095°03'0 0.0
2017-Oct-15 02:30N 29°44' W 095°03'0 0.0
2017-Oct-15 02:00N 29°44' W 095°03'0 0.0
2017-Oct-15 01:30N 29°44' W 095°03'0 0.0
2017-Oct-15 01:01N 29°44' W 095°03'0 0.0
2017-Oct-15 00:30N 29°44' W 095°03'0 0.0
2017-Oct-15 00:00N 29°44' W 095°03'0 0.0
2017-Oct-14 23:30N 29°44' W 095°03'0 0.0
2017-Oct-14 23:00N 29°44' W 095°03'0 0.0
2017-Oct-14 22:30N 29°44' W 095°03'0 0.0
2017-Oct-14 22:00N 29°44' W 095°03'0 0.0
2017-Oct-14 21:30N 29°44' W 095°03'0 0.0
2017-Oct-14 21:00N 29°44' W 095°03'0 0.0
2017-Oct-14 20:30N 29°44' W 095°03'0 0.0
2017-Oct-14 20:00N 29°44' W 095°03'0 0.0
2017-Oct-14 19:30N 29°44' W 095°03'0 0.0
2017-Oct-14 19:00N 29°44' W 095°03'0 0.0
2017-Oct-14 18:30N 29°44' W 095°03'2 4.6
2017-Oct-14 18:00N 29°46' W 095°05'10873428.5
2017-Oct-14 17:41N 39°18' W 076°23'10905535.8
2017-Oct-14 17:29N 29°44' W 095°09'109120567.9
2017-Oct-14 17:26N 39°17' W 076°21'10951759.9
2017-Oct-14 16:48N 29°44' W 095°13'11003488.1
2017-Oct-14 16:29N 39°17' W 076°15'4 7.3
2017-Oct-14 16:00N 39°20' W 076°12'4 8.0
2017-Oct-14 15:29N 39°22' W 076°08'4 8.3
2017-Oct-14 15:00N 39°25' W 076°03'4 8.0
2017-Oct-14 14:30N 39°27' W 075°59'11171367.2
2017-Oct-14 13:41N 29°43' W 095°16'0 0.2
2017-Oct-14 13:06N 29°43' W 095°16'1 5.7
2017-Oct-14 12:52N 29°43' W 095°15'4 6.1
2017-Oct-14 12:15N 29°45' W 095°11'3 6.5
2017-Oct-14 11:43N 29°44' W 095°07'2 6.8
2017-Oct-14 11:26N 29°46' W 095°05'1 0.3
2017-Oct-14 08:03N 29°47' W 095°06'0 0.0
2017-Oct-14 08:00N 29°47' W 095°06'0 0.0
2017-Oct-14 07:15N 29°47' W 095°06'0 0.0
2017-Oct-14 06:43N 29°47' W 095°06'0 0.0
2017-Oct-14 06:23N 29°47' W 095°06'0 0.1
2017-Oct-14 05:56N 29°46' W 095°06'0 0.1
2017-Oct-14 05:12N 29°47' W 095°06'0 0.1
2017-Oct-14 04:53N 29°46' W 095°06'0 0.0
2017-Oct-14 04:30N 29°46' W 095°06'0 0.0
2017-Oct-14 03:55N 29°46' W 095°06'0 0.1
2017-Oct-14 03:30N 29°47' W 095°06'0 0.0
2017-Oct-14 02:43N 29°47' W 095°06'1 2.7
2017-Oct-14 02:29N 29°46' W 095°06'3 5.6
2017-Oct-14 02:00N 29°44' W 095°03'3 6.0
2017-Oct-14 01:30N 29°42' W 095°01'3 6.2
2017-Oct-14 00:58N 29°40' W 094°58'3 4.8
2017-Oct-14 00:22N 29°37' W 094°59'2 4.3
2017-Oct-14 00:00N 29°37' W 095°01'0 0.0
2017-Oct-13 23:30N 29°37' W 095°01'0 0.0
2017-Oct-13 23:00N 29°37' W 095°01'0 0.0
2017-Oct-13 22:30N 29°37' W 095°01'11135969.8
2017-Oct-13 22:19N 39°29' W 075°57'11133544.9
2017-Oct-13 22:00N 29°37' W 095°01'1114401121.2
2017-Oct-13 22:00N 39°29' W 075°55'11142240.9
2017-Oct-13 21:30N 29°37' W 095°01'0 0.0
2017-Oct-13 21:00N 29°37' W 095°01'0 0.0
2017-Oct-13 20:30N 29°37' W 095°01'0 0.0
2017-Oct-13 20:00N 29°37' W 095°01'0 0.0
2017-Oct-13 19:30N 29°37' W 095°01'0 0.0
2017-Oct-13 19:00N 29°37' W 095°01'0 0.0
2017-Oct-13 18:30N 29°37' W 095°01'0 0.0
2017-Oct-13 18:00N 29°37' W 095°01'0 0.0
2017-Oct-13 17:30N 29°37' W 095°01'0 0.0
2017-Oct-13 17:00N 29°37' W 095°01'0 0.0
2017-Oct-13 16:30N 29°37' W 095°01'0 0.0
2017-Oct-13 16:00N 29°37' W 095°01'0 0.0
2017-Oct-13 15:30N 29°37' W 095°01'0 0.0
2017-Oct-13 14:59N 29°37' W 095°01'0 0.1
2017-Oct-13 14:30N 29°37' W 095°01'0 0.1
2017-Oct-13 14:00N 29°37' W 095°01'0 0.0
2017-Oct-13 13:30N 29°37' W 095°01'0 0.6
2017-Oct-13 13:00N 29°37' W 095°00'2 4.8
2017-Oct-13 12:30N 29°38' W 094°58'3 6.5
2017-Oct-13 12:00N 29°41' W 094°59'1 1.2
2017-Oct-13 11:30N 29°41' W 095°00'1 1.9
2017-Oct-13 11:00N 29°41' W 094°59'3 5.1
2017-Oct-13 10:30N 29°43' W 095°01'3 6.0
2017-Oct-13 09:59N 29°45' W 095°04'2 1.9
2017-Oct-13 08:41N 29°47' W 095°06'0 0.2
2017-Oct-13 08:31N 29°47' W 095°06'1 1.0
2017-Oct-13 08:00N 29°46' W 095°06'2 3.8
2017-Oct-13 07:30N 29°45' W 095°04'3 6.7
2017-Oct-13 07:00N 29°43' W 095°01'2 4.7
2017-Oct-13 06:30N 29°41' W 095°00'0 0.6
2017-Oct-13 06:00N 29°41' W 095°00'0 0.0
2017-Oct-13 05:30N 29°41' W 095°00'0 0.0
2017-Oct-13 05:00N 29°41' W 095°00'0 0.0
2017-Oct-13 04:25N 29°41' W 095°00'0 0.0
2017-Oct-13 04:00N 29°41' W 095°00'0 0.0
2017-Oct-13 03:30N 29°41' W 095°00'0 0.0
2017-Oct-13 02:59N 29°41' W 095°00'0 0.0
2017-Oct-13 02:30N 29°41' W 095°00'0 0.0
2017-Oct-13 01:48N 29°41' W 095°00'0 0.0
2017-Oct-13 01:23N 29°41' W 095°00'0 0.0
2017-Oct-13 00:58N 29°41' W 095°00'0 0.0
2017-Oct-13 00:30N 29°41' W 095°00'0 0.0
2017-Oct-13 00:00N 29°41' W 095°00'0 0.0
2017-Oct-12 23:30N 29°41' W 095°00'0 0.0
2017-Oct-12 23:00N 29°41' W 095°00'0 0.0
2017-Oct-12 22:30N 29°41' W 095°00'111227808.8
2017-Oct-12 22:28N 39°29' W 075°54'11122446.6
2017-Oct-12 22:00N 29°42' W 095°01'1111266636.4
2017-Oct-12 22:00N 39°29' W 075°55'11122228.0
2017-Oct-12 21:30N 29°45' W 095°04'11101332593.0
2017-Oct-12 21:30N 39°29' W 075°56'3 5.4
2017-Oct-12 21:00N 39°31' W 075°54'11142314.5
2017-Oct-12 20:31N 29°47' W 095°06'111860973.4
2017-Oct-12 20:30N 39°32' W 075°48'111817806.9
2017-Oct-12 20:26N 29°46' W 095°06'11222562.0
2017-Oct-12 20:00N 39°33' W 075°43'112223765.5
2017-Oct-12 19:57N 29°47' W 095°06'11262487.6
2017-Oct-12 19:30N 39°33' W 075°37'11281353072.6
2017-Oct-12 19:30N 29°45' W 095°06'3 6.6
2017-Oct-12 19:01N 29°45' W 095°10'1133214642.6
2017-Oct-12 19:00N 39°33' W 075°33'11362293.7
2017-Oct-12 18:30N 29°44' W 095°14'1134240173.6
2017-Oct-12 18:30N 39°29' W 075°33'4 7.9
2017-Oct-12 18:00N 39°25' W 075°31'11376088.4
2017-Oct-12 17:49N 29°43' W 095°17'11373646.2
2017-Oct-12 17:30N 39°23' W 075°28'113724667.0
2017-Oct-12 17:28N 29°43' W 095°17'1 1.1
2017-Oct-12 17:01N 29°44' W 095°16'1138204830.0
2017-Oct-12 17:00N 39°20' W 075°25'4 7.8
2017-Oct-12 16:30N 39°17' W 075°22'3 6.5
2017-Oct-12 16:00N 39°15' W 075°19'11413402.3
2017-Oct-12 15:40N 29°43' W 095°17'0 0.0
2017-Oct-12 15:30N 29°43' W 095°17'1141228206.7
2017-Oct-12 15:30N 39°12' W 075°17'4 7.5
2017-Oct-12 15:00N 39°09' W 075°14'11412054476.6
2017-Oct-12 15:00N 29°43' W 095°17'0 0.0
2017-Oct-12 14:31N 29°43' W 095°17'0 0.0
2017-Oct-12 14:00N 29°43' W 095°17'0 0.0
2017-Oct-12 13:31N 29°43' W 095°17'0 0.0
2017-Oct-12 13:00N 29°43' W 095°17'0 0.0
2017-Oct-12 12:30N 29°43' W 095°17'0 0.0
2017-Oct-12 11:58N 29°43' W 095°17'0 0.0
2017-Oct-12 11:30N 29°43' W 095°17'0 0.0
2017-Oct-12 11:00N 29°43' W 095°17'0 0.0
2017-Oct-12 10:29N 29°43' W 095°17'0 0.0
2017-Oct-12 09:59N 29°43' W 095°17'0 0.0
2017-Oct-12 09:30N 29°43' W 095°17'0 0.8
2017-Oct-12 09:00N 29°43' W 095°16'3 6.2
2017-Oct-12 08:30N 29°44' W 095°13'3 5.8
2017-Oct-12 08:00N 29°44' W 095°09'3 6.2
2017-Oct-12 07:30N 29°45' W 095°06'1 2.9
2017-Oct-12 07:00N 29°47' W 095°06'1 1.2
2017-Oct-12 06:28N 29°46' W 095°06'1 1.3
2017-Oct-12 06:00N 29°45' W 095°06'1 1.1
2017-Oct-12 05:29N 29°45' W 095°06'0 0.0
2017-Oct-12 05:00N 29°45' W 095°06'0 0.0
2017-Oct-12 04:29N 29°45' W 095°06'0 0.0
2017-Oct-12 03:59N 29°45' W 095°06'0 0.0
2017-Oct-12 03:26N 29°45' W 095°06'0 0.0
2017-Oct-12 03:00N 29°45' W 095°06'0 0.0
2017-Oct-12 02:23N 29°45' W 095°06'0 0.0
2017-Oct-12 01:58N 29°45' W 095°06'0 0.0
2017-Oct-12 01:18N 29°45' W 095°06'0 0.0
2017-Oct-12 00:59N 29°45' W 095°06'1 1.9
2017-Oct-12 00:28N 29°46' W 095°05'1 1.9
2017-Oct-11 23:57N 29°46' W 095°06'0 0.1
2017-Oct-11 23:30N 29°46' W 095°06'0 0.1
2017-Oct-11 23:00N 29°46' W 095°06'0 0.0
2017-Oct-11 22:30N 29°46' W 095°06'0 0.0
2017-Oct-11 22:00N 29°46' W 095°06'0 0.0
2017-Oct-11 21:30N 29°46' W 095°06'0 0.1
2017-Oct-11 20:47N 29°46' W 095°06'0 0.0
2017-Oct-11 19:11N 29°46' W 095°06'0 0.0
2017-Oct-11 18:56N 29°46' W 095°06'0 0.2
2017-Oct-11 18:29N 29°46' W 095°06'0 0.1
2017-Oct-11 17:57N 29°47' W 095°06'10 0.6
2017-Oct-11 00:00N 29°39' W 094°58'3 5.5
2017-Oct-10 23:30N 29°37' W 094°57'3 5.5
2017-Oct-10 23:00N 29°34' W 094°56'3 5.5
2017-Oct-10 22:30N 29°32' W 094°54'3 5.3
2017-Oct-10 22:00N 29°30' W 094°52'1187264.7
2017-Oct-10 17:31N 39°33' W 074°12'1 7.3
2017-Oct-10 17:25N 39°34' W 074°11'3 7.3
2017-Oct-10 16:59N 39°37' W 074°09'4 7.4
2017-Oct-10 16:30N 39°40' W 074°07'4 7.6
2017-Oct-10 16:00N 39°43' W 074°05'4 7.2
2017-Oct-10 15:30N 39°47' W 074°04'119867.4
2017-Oct-09 21:44N 29°29' W 094°52'2 6.7
2017-Oct-09 21:30N 29°30' W 094°52'3 6.7
2017-Oct-09 21:00N 29°33' W 094°55'3 6.5
2017-Oct-09 20:30N 29°36' W 094°57'3 6.5
2017-Oct-09 20:00N 29°39' W 094°58'3 6.9
2017-Oct-09 19:30N 29°42' W 094°60'3 6.6
2017-Oct-09 19:00N 29°44' W 095°03'3 5.8
2017-Oct-09 18:30N 29°45' W 095°06'3 6.8
2017-Oct-09 18:00N 29°44' W 095°09'3 6.3
2017-Oct-09 17:30N 29°44' W 095°13'3 6.4
2017-Oct-09 17:00N 29°44' W 095°17'1 2.0
2017-Oct-09 16:29N 29°45' W 095°17'3 5.8
2017-Oct-09 16:00N 29°43' W 095°14'3 6.3
2017-Oct-09 15:29N 29°45' W 095°11'3 6.4
2017-Oct-09 14:59N 29°44' W 095°07'2 4.2
2017-Oct-09 14:29N 29°46' W 095°06'1 1.2
2017-Oct-09 14:00N 29°46' W 095°06'0 0.0
2017-Oct-09 13:30N 29°47' W 095°06'0 0.0
2017-Oct-09 13:00N 29°47' W 095°06'  
Track history (hours):
 
Tides and Currents Weather Stations Pressure Air Temp Water Temp Dewpoint Dewpoint Depression Visibility Wind Speed Wind Dir Waves Ship Positions

Patrick J. Studdert

Owner: SHAMROCK MARINE L.L.C., Kingwood, TX. More information available from US FCC via Universal Licensing System and Coast Guard Vessel Documentation Center.

Last reported at 2017-Oct-19 02:19 UTC. Time now 2017-Oct-19 05:30 UTC.
Position N 29°46' W 095°06'.

Length 100 m; draft 2.9 m.

Type: Towing. MMSI: 367534690.

Date/timePositionNaut miles runAvg speedWind from/ knotsBaromVisibWave heightAir tempDewpointWater temp
2017-Oct-19 02:19N 29°46' W 095°06'0 0.1
2017-Oct-19 01:48N 29°46' W 095°06'0 1.3
2017-Oct-19 01:30N 29°46' W 095°06'2 4.4
2017-Oct-19 01:00N 29°45' W 095°04'3 6.2
2017-Oct-19 00:30N 29°43' W 095°01'3 6.6
2017-Oct-19 00:00N 29°40' W 094°59'4 7.3
2017-Oct-18 23:30N 29°37' W 094°57'4 7.1
2017-Oct-18 23:00N 29°34' W 094°55'7 0.8
2017-Oct-18 14:40N 29°28' W 094°51'5 7.0
2017-Oct-18 14:00N 29°32' W 094°54'3 6.9
2017-Oct-18 13:30N 29°35' W 094°56'3 6.6
2017-Oct-18 13:00N 29°38' W 094°58'3 6.9
2017-Oct-18 12:30N 29°41' W 094°59'3 6.1
2017-Oct-18 12:00N 29°43' W 095°01'3 6.1
2017-Oct-18 11:30N 29°45' W 095°04'2 4.0
2017-Oct-18 11:00N 29°46' W 095°06'0 0.2
2017-Oct-18 10:24N 29°46' W 095°06'1 1.7
2017-Oct-18 09:59N 29°46' W 095°06'2 3.1
2017-Oct-18 09:30N 29°45' W 095°04'3 6.1
2017-Oct-18 09:00N 29°43' W 095°01'3 5.7
2017-Oct-18 08:30N 29°41' W 094°59'1 0.2
2017-Oct-18 03:43N 29°41' W 095°00'0 0.0
2017-Oct-18 02:45N 29°41' W 095°00'0 0.0
2017-Oct-17 21:36N 29°41' W 095°00'0 0.1
2017-Oct-17 21:27N 29°41' W 095°00'0 0.7
2017-Oct-17 21:00N 29°41' W 094°60'2 3.1
2017-Oct-17 20:30N 29°42' W 095°01'3 5.8
2017-Oct-17 20:00N 29°44' W 095°03'3 5.0
2017-Oct-17 19:29N 29°46' W 095°06'0 0.8
2017-Oct-17 19:00N 29°46' W 095°06'1 1.0
2017-Oct-17 18:23N 29°46' W 095°05'1 0.1
2017-Oct-17 07:43N 29°46' W 095°06'1 2.5
2017-Oct-17 07:30N 29°46' W 095°06'3 5.1
2017-Oct-17 07:00N 29°44' W 095°03'0 0.0
2017-Oct-16 20:00N 29°44' W 095°03'0 0.0
2017-Oct-16 17:15N 29°44' W 095°03'1 5.8
2017-Oct-16 17:00N 29°45' W 095°04'2 3.9
2017-Oct-16 16:25N 29°46' W 095°06'2 1.6
2017-Oct-16 15:24N 29°47' W 095°04'2 0.2
2017-Oct-16 07:41N 29°46' W 095°06'1 3.1
2017-Oct-16 07:29N 29°46' W 095°06'2 4.7
2017-Oct-16 07:00N 29°45' W 095°04'3 6.3
2017-Oct-16 06:30N 29°42' W 095°01'3 6.4
2017-Oct-16 06:00N 29°40' W 094°59'4 7.8
2017-Oct-16 05:31N 29°36' W 094°57'4 7.6
2017-Oct-16 05:00N 29°33' W 094°55'1074108.4
2017-Oct-15 19:06N 38°58' W 076°29'0 0.0
2017-Oct-15 19:00N 38°58' W 076°29'1 1.2
2017-Oct-15 18:30N 38°58' W 076°28'3 6.1
2017-Oct-15 18:00N 38°59' W 076°25'2 4.8
2017-Oct-15 17:30N 39°01' W 076°23'3 4.3
2017-Oct-15 16:48N 39°04' W 076°24'1081107.0
2017-Oct-15 06:42N 29°28' W 094°51'1 5.7
2017-Oct-15 06:29N 29°29' W 094°52'3 6.0
2017-Oct-15 06:00N 29°31' W 094°53'3 6.5
2017-Oct-15 05:30N 29°34' W 094°55'3 6.6
2017-Oct-15 05:00N 29°37' W 094°57'3 7.0
2017-Oct-15 04:30N 29°40' W 094°59'3 6.8
2017-Oct-15 04:00N 29°43' W 095°01'2 2.2
2017-Oct-15 03:07N 29°44' W 095°03'0 0.0
2017-Oct-15 03:00N 29°44' W 095°03'0 0.0
2017-Oct-15 02:30N 29°44' W 095°03'0 0.0
2017-Oct-15 02:00N 29°44' W 095°03'0 0.0
2017-Oct-15 01:30N 29°44' W 095°03'0 0.0
2017-Oct-15 01:01N 29°44' W 095°03'0 0.0
2017-Oct-15 00:30N 29°44' W 095°03'0 0.0
2017-Oct-15 00:00N 29°44' W 095°03'0 0.0
2017-Oct-14 23:30N 29°44' W 095°03'0 0.0
2017-Oct-14 23:00N 29°44' W 095°03'0 0.0
2017-Oct-14 22:30N 29°44' W 095°03'0 0.0
2017-Oct-14 22:00N 29°44' W 095°03'0 0.0
2017-Oct-14 21:30N 29°44' W 095°03'0 0.0
2017-Oct-14 21:00N 29°44' W 095°03'0 0.0
2017-Oct-14 20:30N 29°44' W 095°03'0 0.0
2017-Oct-14 20:00N 29°44' W 095°03'0 0.0
2017-Oct-14 19:30N 29°44' W 095°03'0 0.0
2017-Oct-14 19:00N 29°44' W 095°03'0 0.0
2017-Oct-14 18:30N 29°44' W 095°03'2 4.6
2017-Oct-14 18:00N 29°46' W 095°05'10873428.5
2017-Oct-14 17:41N 39°18' W 076°23'10905535.8
2017-Oct-14 17:29N 29°44' W 095°09'109120567.9
2017-Oct-14 17:26N 39°17' W 076°21'10951759.9
2017-Oct-14 16:48N 29°44' W 095°13'11003488.1
2017-Oct-14 16:29N 39°17' W 076°15'4 7.3
2017-Oct-14 16:00N 39°20' W 076°12'4 8.0
2017-Oct-14 15:29N 39°22' W 076°08'4 8.3
2017-Oct-14 15:00N 39°25' W 076°03'4 8.0
2017-Oct-14 14:30N 39°27' W 075°59'11171367.2
2017-Oct-14 13:41N 29°43' W 095°16'0 0.2
2017-Oct-14 13:06N 29°43' W 095°16'1 5.7
2017-Oct-14 12:52N 29°43' W 095°15'4 6.1
2017-Oct-14 12:15N 29°45' W 095°11'3 6.5
2017-Oct-14 11:43N 29°44' W 095°07'2 6.8
2017-Oct-14 11:26N 29°46' W 095°05'1 0.3
2017-Oct-14 08:03N 29°47' W 095°06'0 0.0
2017-Oct-14 08:00N 29°47' W 095°06'0 0.0
2017-Oct-14 07:15N 29°47' W 095°06'0 0.0
2017-Oct-14 06:43N 29°47' W 095°06'0 0.0
2017-Oct-14 06:23N 29°47' W 095°06'0 0.1
2017-Oct-14 05:56N 29°46' W 095°06'0 0.1
2017-Oct-14 05:12N 29°47' W 095°06'0 0.1
2017-Oct-14 04:53N 29°46' W 095°06'0 0.0
2017-Oct-14 04:30N 29°46' W 095°06'0 0.0
2017-Oct-14 03:55N 29°46' W 095°06'0 0.1
2017-Oct-14 03:30N 29°47' W 095°06'0 0.0
2017-Oct-14 02:43N 29°47' W 095°06'1 2.7
2017-Oct-14 02:29N 29°46' W 095°06'3 5.6
2017-Oct-14 02:00N 29°44' W 095°03'3 6.0
2017-Oct-14 01:30N 29°42' W 095°01'3 6.2
2017-Oct-14 00:58N 29°40' W 094°58'3 4.8
2017-Oct-14 00:22N 29°37' W 094°59'2 4.3
2017-Oct-14 00:00N 29°37' W 095°01'0 0.0
2017-Oct-13 23:30N 29°37' W 095°01'0 0.0
2017-Oct-13 23:00N 29°37' W 095°01'0 0.0
2017-Oct-13 22:30N 29°37' W 095°01'11135969.8
2017-Oct-13 22:19N 39°29' W 075°57'11133544.9
2017-Oct-13 22:00N 29°37' W 095°01'1114401121.2
2017-Oct-13 22:00N 39°29' W 075°55'11142240.9
2017-Oct-13 21:30N 29°37' W 095°01'0 0.0
2017-Oct-13 21:00N 29°37' W 095°01'0 0.0
2017-Oct-13 20:30N 29°37' W 095°01'0 0.0
2017-Oct-13 20:00N 29°37' W 095°01'0 0.0
2017-Oct-13 19:30N 29°37' W 095°01'0 0.0
2017-Oct-13 19:00N 29°37' W 095°01'0 0.0
2017-Oct-13 18:30N 29°37' W 095°01'0 0.0
2017-Oct-13 18:00N 29°37' W 095°01'0 0.0
2017-Oct-13 17:30N 29°37' W 095°01'0 0.0
2017-Oct-13 17:00N 29°37' W 095°01'0 0.0
2017-Oct-13 16:30N 29°37' W 095°01'0 0.0
2017-Oct-13 16:00N 29°37' W 095°01'0 0.0
2017-Oct-13 15:30N 29°37' W 095°01'0 0.0
2017-Oct-13 14:59N 29°37' W 095°01'0 0.1
2017-Oct-13 14:30N 29°37' W 095°01'0 0.1
2017-Oct-13 14:00N 29°37' W 095°01'0 0.0
2017-Oct-13 13:30N 29°37' W 095°01'0 0.6
2017-Oct-13 13:00N 29°37' W 095°00'2 4.8
2017-Oct-13 12:30N 29°38' W 094°58'3 6.5
2017-Oct-13 12:00N 29°41' W 094°59'1 1.2
2017-Oct-13 11:30N 29°41' W 095°00'1 1.9
2017-Oct-13 11:00N 29°41' W 094°59'3 5.1
2017-Oct-13 10:30N 29°43' W 095°01'3 6.0
2017-Oct-13 09:59N 29°45' W 095°04'2 1.9
2017-Oct-13 08:41N 29°47' W 095°06'0 0.2
2017-Oct-13 08:31N 29°47' W 095°06'1 1.0
2017-Oct-13 08:00N 29°46' W 095°06'2 3.8
2017-Oct-13 07:30N 29°45' W 095°04'3 6.7
2017-Oct-13 07:00N 29°43' W 095°01'2 4.7
2017-Oct-13 06:30N 29°41' W 095°00'0 0.6
2017-Oct-13 06:00N 29°41' W 095°00'0 0.0
2017-Oct-13 05:30N 29°41' W 095°00'0 0.0
2017-Oct-13 05:00N 29°41' W 095°00'0 0.0
2017-Oct-13 04:25N 29°41' W 095°00'0 0.0
2017-Oct-13 04:00N 29°41' W 095°00'0 0.0
2017-Oct-13 03:30N 29°41' W 095°00'0 0.0
2017-Oct-13 02:59N 29°41' W 095°00'0 0.0
2017-Oct-13 02:30N 29°41' W 095°00'0 0.0
2017-Oct-13 01:48N 29°41' W 095°00'0 0.0
2017-Oct-13 01:23N 29°41' W 095°00'0 0.0
2017-Oct-13 00:58N 29°41' W 095°00'0 0.0
2017-Oct-13 00:30N 29°41' W 095°00'0 0.0
2017-Oct-13 00:00N 29°41' W 095°00'0 0.0
2017-Oct-12 23:30N 29°41' W 095°00'0 0.0
2017-Oct-12 23:00N 29°41' W 095°00'0 0.0
2017-Oct-12 22:30N 29°41' W 095°00'111227808.8
2017-Oct-12 22:28N 39°29' W 075°54'11122446.6
2017-Oct-12 22:00N 29°42' W 095°01'1111266636.4
2017-Oct-12 22:00N 39°29' W 075°55'11122228.0
2017-Oct-12 21:30N 29°45' W 095°04'11101332593.0
2017-Oct-12 21:30N 39°29' W 075°56'3 5.4
2017-Oct-12 21:00N 39°31' W 075°54'11142314.5
2017-Oct-12 20:31N 29°47' W 095°06'111860973.4
2017-Oct-12 20:30N 39°32' W 075°48'111817806.9
2017-Oct-12 20:26N 29°46' W 095°06'11222562.0
2017-Oct-12 20:00N 39°33' W 075°43'112223765.5
2017-Oct-12 19:57N 29°47' W 095°06'11262487.6
2017-Oct-12 19:30N 39°33' W 075°37'11281353072.6
2017-Oct-12 19:30N 29°45' W 095°06'3 6.6
2017-Oct-12 19:01N 29°45' W 095°10'1133214642.6
2017-Oct-12 19:00N 39°33' W 075°33'11362293.7
2017-Oct-12 18:30N 29°44' W 095°14'1134240173.6
2017-Oct-12 18:30N 39°29' W 075°33'4 7.9
2017-Oct-12 18:00N 39°25' W 075°31'11376088.4
2017-Oct-12 17:49N 29°43' W 095°17'11373646.2
2017-Oct-12 17:30N 39°23' W 075°28'113724667.0
2017-Oct-12 17:28N 29°43' W 095°17'1 1.1
2017-Oct-12 17:01N 29°44' W 095°16'1138204830.0
2017-Oct-12 17:00N 39°20' W 075°25'4 7.8
2017-Oct-12 16:30N 39°17' W 075°22'3 6.5
2017-Oct-12 16:00N 39°15' W 075°19'11413402.3
2017-Oct-12 15:40N 29°43' W 095°17'0 0.0
2017-Oct-12 15:30N 29°43' W 095°17'1141228206.7
2017-Oct-12 15:30N 39°12' W 075°17'4 7.5
2017-Oct-12 15:00N 39°09' W 075°14'11412054476.6
2017-Oct-12 15:00N 29°43' W 095°17'0 0.0
2017-Oct-12 14:31N 29°43' W 095°17'0 0.0
2017-Oct-12 14:00N 29°43' W 095°17'0 0.0
2017-Oct-12 13:31N 29°43' W 095°17'0 0.0
2017-Oct-12 13:00N 29°43' W 095°17'0 0.0
2017-Oct-12 12:30N 29°43' W 095°17'0 0.0
2017-Oct-12 11:58N 29°43' W 095°17'0 0.0
2017-Oct-12 11:30N 29°43' W 095°17'0 0.0
2017-Oct-12 11:00N 29°43' W 095°17'0 0.0
2017-Oct-12 10:29N 29°43' W 095°17'0 0.0
2017-Oct-12 09:59N 29°43' W 095°17'0 0.0
2017-Oct-12 09:30N 29°43' W 095°17'0 0.8
2017-Oct-12 09:00N 29°43' W 095°16'3 6.2
2017-Oct-12 08:30N 29°44' W 095°13'3 5.8
2017-Oct-12 08:00N 29°44' W 095°09'3 6.2
2017-Oct-12 07:30N 29°45' W 095°06'1 2.9
2017-Oct-12 07:00N 29°47' W 095°06'1 1.2
2017-Oct-12 06:28N 29°46' W 095°06'1 1.3
2017-Oct-12 06:00N 29°45' W 095°06'1 1.1
2017-Oct-12 05:29N 29°45' W 095°06'0 0.0
2017-Oct-12 05:00N 29°45' W 095°06'0 0.0
2017-Oct-12 04:29N 29°45' W 095°06'0 0.0
2017-Oct-12 03:59N 29°45' W 095°06'0 0.0
2017-Oct-12 03:26N 29°45' W 095°06'0 0.0
2017-Oct-12 03:00N 29°45' W 095°06'0 0.0
2017-Oct-12 02:23N 29°45' W 095°06'0 0.0
2017-Oct-12 01:58N 29°45' W 095°06'0 0.0
2017-Oct-12 01:18N 29°45' W 095°06'0 0.0
2017-Oct-12 00:59N 29°45' W 095°06'1 1.9
2017-Oct-12 00:28N 29°46' W 095°05'1 1.9
2017-Oct-11 23:57N 29°46' W 095°06'0 0.1
2017-Oct-11 23:30N 29°46' W 095°06'0 0.1
2017-Oct-11 23:00N 29°46' W 095°06'0 0.0
2017-Oct-11 22:30N 29°46' W 095°06'0 0.0
2017-Oct-11 22:00N 29°46' W 095°06'0 0.0
2017-Oct-11 21:30N 29°46' W 095°06'0 0.1
2017-Oct-11 20:47N 29°46' W 095°06'0 0.0
2017-Oct-11 19:11N 29°46' W 095°06'0 0.0
2017-Oct-11 18:56N 29°46' W 095°06'0 0.2
2017-Oct-11 18:29N 29°46' W 095°06'0 0.1
2017-Oct-11 17:57N 29°47' W 095°06'10 0.6
2017-Oct-11 00:00N 29°39' W 094°58'3 5.5
2017-Oct-10 23:30N 29°37' W 094°57'3 5.5
2017-Oct-10 23:00N 29°34' W 094°56'3 5.5
2017-Oct-10 22:30N 29°32' W 094°54'3 5.3
2017-Oct-10 22:00N 29°30' W 094°52'1187264.7
2017-Oct-10 17:31N 39°33' W 074°12'1 7.3
2017-Oct-10 17:25N 39°34' W 074°11'3 7.3
2017-Oct-10 16:59N 39°37' W 074°09'4 7.4
2017-Oct-10 16:30N 39°40' W 074°07'4 7.6
2017-Oct-10 16:00N 39°43' W 074°05'4 7.2
2017-Oct-10 15:30N 39°47' W 074°04'119867.4
2017-Oct-09 21:44N 29°29' W 094°52'2 6.7
2017-Oct-09 21:30N 29°30' W 094°52'3 6.7
2017-Oct-09 21:00N 29°33' W 094°55'3 6.5
2017-Oct-09 20:30N 29°36' W 094°57'3 6.5
2017-Oct-09 20:00N 29°39' W 094°58'3 6.9
2017-Oct-09 19:30N 29°42' W 094°60'3 6.6
2017-Oct-09 19:00N 29°44' W 095°03'3 5.8
2017-Oct-09 18:30N 29°45' W 095°06'3 6.8
2017-Oct-09 18:00N 29°44' W 095°09'3 6.3
2017-Oct-09 17:30N 29°44' W 095°13'3 6.4
2017-Oct-09 17:00N 29°44' W 095°17'1 2.0
2017-Oct-09 16:29N 29°45' W 095°17'3 5.8
2017-Oct-09 16:00N 29°43' W 095°14'3 6.3
2017-Oct-09 15:29N 29°45' W 095°11'3 6.4
2017-Oct-09 14:59N 29°44' W 095°07'2 4.2
2017-Oct-09 14:29N 29°46' W 095°06'1 1.2
2017-Oct-09 14:00N 29°46' W 095°06'0 0.0
2017-Oct-09 13:30N 29°47' W 095°06'0 0.0
2017-Oct-09 13:00N 29°47' W 095°06'  

Dump ship's entire track history